sensor_id;sensor_type;location;lat;lon;timestamp;temperature;humidity
23671;DHT22;12012;51.998;7.614;2023-07-29T00:00:46;19.70;99.90
23671;DHT22;12012;51.998;7.614;2023-07-29T00:03:11;19.70;1.00
23671;DHT22;12012;51.998;7.614;2023-07-29T00:05:37;19.70;99.90
23671;DHT22;12012;51.998;7.614;2023-07-29T00:08:03;19.60;1.00
23671;DHT22;12012;51.998;7.614;2023-07-29T00:10:31;19.60;1.00
23671;DHT22;12012;51.998;7.614;2023-07-29T00:12:58;19.60;1.00
23671;DHT22;12012;51.998;7.614;2023-07-29T00:15:23;19.60;1.00
23671;DHT22;12012;51.998;7.614;2023-07-29T00:17:49;19.60;1.00
23671;DHT22;12012;51.998;7.614;2023-07-29T00:20:15;19.60;1.00
23671;DHT22;12012;51.998;7.614;2023-07-29T00:22:41;19.60;1.00
23671;DHT22;12012;51.998;7.614;2023-07-29T00:25:07;19.60;1.00
23671;DHT22;12012;51.998;7.614;2023-07-29T00:27:33;19.50;1.00
23671;DHT22;12012;51.998;7.614;2023-07-29T00:29:58;19.50;1.00
23671;DHT22;12012;51.998;7.614;2023-07-29T00:32:24;19.50;1.00
23671;DHT22;12012;51.998;7.614;2023-07-29T00:34:50;19.50;1.00
23671;DHT22;12012;51.998;7.614;2023-07-29T00:37:15;19.50;1.00
23671;DHT22;12012;51.998;7.614;2023-07-29T00:39:41;19.50;1.00
23671;DHT22;12012;51.998;7.614;2023-07-29T00:42:07;19.40;1.00
23671;DHT22;12012;51.998;7.614;2023-07-29T00:44:32;19.40;1.00
23671;DHT22;12012;51.998;7.614;2023-07-29T00:46:59;19.30;1.00
23671;DHT22;12012;51.998;7.614;2023-07-29T00:49:26;19.30;1.00
23671;DHT22;12012;51.998;7.614;2023-07-29T00:51:51;19.30;1.00
23671;DHT22;12012;51.998;7.614;2023-07-29T00:54:17;19.30;1.00
23671;DHT22;12012;51.998;7.614;2023-07-29T00:56:43;19.20;1.00
23671;DHT22;12012;51.998;7.614;2023-07-29T00:59:08;19.20;1.00
23671;DHT22;12012;51.998;7.614;2023-07-29T01:01:34;19.10;1.00
23671;DHT22;12012;51.998;7.614;2023-07-29T01:04:00;19.10;1.00
23671;DHT22;12012;51.998;7.614;2023-07-29T01:06:50;19.00;1.00
23671;DHT22;12012;51.998;7.614;2023-07-29T01:12:16;19.00;16.10
23671;DHT22;12012;51.998;7.614;2023-07-29T01:14:55;18.90;3.30
23671;DHT22;12012;51.998;7.614;2023-07-29T01:17:27;18.90;1.00
23671;DHT22;12012;51.998;7.614;2023-07-29T01:20:02;18.90;3.70
23671;DHT22;12012;51.998;7.614;2023-07-29T01:22:34;18.80;16.00
23671;DHT22;12012;51.998;7.614;2023-07-29T01:25:00;18.80;3.20
23671;DHT22;12012;51.998;7.614;2023-07-29T01:27:26;18.80;1.00
23671;DHT22;12012;51.998;7.614;2023-07-29T01:29:53;18.80;1.00
23671;DHT22;12012;51.998;7.614;2023-07-29T01:32:28;18.70;1.00
23671;DHT22;12012;51.998;7.614;2023-07-29T01:35:03;18.70;40.50
23671;DHT22;12012;51.998;7.614;2023-07-29T01:37:32;18.70;35.00
23671;DHT22;12012;51.998;7.614;2023-07-29T01:39:59;18.70;51.50
23671;DHT22;12012;51.998;7.614;2023-07-29T01:42:26;18.60;36.30
23671;DHT22;12012;51.998;7.614;2023-07-29T01:44:52;18.60;62.30
23671;DHT22;12012;51.998;7.614;2023-07-29T01:47:18;18.60;54.40
23671;DHT22;12012;51.998;7.614;2023-07-29T01:49:43;18.60;59.40
23671;DHT22;12012;51.998;7.614;2023-07-29T01:52:09;18.60;87.70
23671;DHT22;12012;51.998;7.614;2023-07-29T01:54:34;18.60;74.00
23671;DHT22;12012;51.998;7.614;2023-07-29T01:57:00;18.60;62.40
23671;DHT22;12012;51.998;7.614;2023-07-29T01:59:25;18.60;84.80
23671;DHT22;12012;51.998;7.614;2023-07-29T02:01:51;18.70;78.50
23671;DHT22;12012;51.998;7.614;2023-07-29T02:04:16;18.70;82.90
23671;DHT22;12012;51.998;7.614;2023-07-29T02:06:42;18.70;88.10
23671;DHT22;12012;51.998;7.614;2023-07-29T02:09:07;18.70;66.90
23671;DHT22;12012;51.998;7.614;2023-07-29T02:11:33;18.80;67.00
23671;DHT22;12012;51.998;7.614;2023-07-29T02:13:58;18.80;56.40
23671;DHT22;12012;51.998;7.614;2023-07-29T02:16:24;18.80;63.20
23671;DHT22;12012;51.998;7.614;2023-07-29T02:18:50;18.80;53.70
23671;DHT22;12012;51.998;7.614;2023-07-29T02:21:16;18.80;39.90
23671;DHT22;12012;51.998;7.614;2023-07-29T02:23:42;18.80;56.20
23671;DHT22;12012;51.998;7.614;2023-07-29T02:26:07;18.80;66.10
23671;DHT22;12012;51.998;7.614;2023-07-29T02:28:33;18.80;58.00
23671;DHT22;12012;51.998;7.614;2023-07-29T02:31:16;18.80;60.50
23671;DHT22;12012;51.998;7.614;2023-07-29T02:33:42;18.80;58.40
23671;DHT22;12012;51.998;7.614;2023-07-29T02:36:08;18.80;49.20
23671;DHT22;12012;51.998;7.614;2023-07-29T02:38:34;18.80;53.60
23671;DHT22;12012;51.998;7.614;2023-07-29T02:41:00;18.80;54.90
23671;DHT22;12012;51.998;7.614;2023-07-29T02:43:25;18.80;57.50
23671;DHT22;12012;51.998;7.614;2023-07-29T02:45:51;18.80;53.50
23671;DHT22;12012;51.998;7.614;2023-07-29T02:48:16;18.80;59.50
23671;DHT22;12012;51.998;7.614;2023-07-29T02:50:42;18.80;51.40
23671;DHT22;12012;51.998;7.614;2023-07-29T02:53:07;18.80;39.90
23671;DHT22;12012;51.998;7.614;2023-07-29T02:55:33;18.80;51.40
23671;DHT22;12012;51.998;7.614;2023-07-29T02:57:58;18.80;36.30
23671;DHT22;12012;51.998;7.614;2023-07-29T03:00:24;18.80;47.60
23671;DHT22;12012;51.998;7.614;2023-07-29T03:02:50;18.90;63.40
23671;DHT22;12012;51.998;7.614;2023-07-29T03:05:15;18.90;74.50
23671;DHT22;12012;51.998;7.614;2023-07-29T03:07:41;18.90;59.30
23671;DHT22;12012;51.998;7.614;2023-07-29T03:10:07;18.90;66.10
23671;DHT22;12012;51.998;7.614;2023-07-29T03:12:32;18.90;88.70
23671;DHT22;12012;51.998;7.614;2023-07-29T03:14:58;18.90;89.50
23671;DHT22;12012;51.998;7.614;2023-07-29T03:17:25;18.90;91.00
23671;DHT22;12012;51.998;7.614;2023-07-29T03:19:51;18.90;83.00
23671;DHT22;12012;51.998;7.614;2023-07-29T03:22:17;18.90;93.50
23671;DHT22;12012;51.998;7.614;2023-07-29T03:24:43;18.90;80.60
23671;DHT22;12012;51.998;7.614;2023-07-29T03:27:08;18.90;64.00
23671;DHT22;12012;51.998;7.614;2023-07-29T03:29:35;18.90;82.10
23671;DHT22;12012;51.998;7.614;2023-07-29T03:32:01;18.90;84.10
23671;DHT22;12012;51.998;7.614;2023-07-29T03:34:26;18.90;72.60
23671;DHT22;12012;51.998;7.614;2023-07-29T03:36:52;18.90;76.10
23671;DHT22;12012;51.998;7.614;2023-07-29T03:39:17;18.90;80.20
23671;DHT22;12012;51.998;7.614;2023-07-29T03:41:43;18.90;91.90
23671;DHT22;12012;51.998;7.614;2023-07-29T03:44:08;18.90;75.90
23671;DHT22;12012;51.998;7.614;2023-07-29T03:46:34;18.90;82.60
23671;DHT22;12012;51.998;7.614;2023-07-29T03:49:00;18.90;84.80
23671;DHT22;12012;51.998;7.614;2023-07-29T03:51:25;18.90;80.80
23671;DHT22;12012;51.998;7.614;2023-07-29T03:53:51;18.90;87.40
23671;DHT22;12012;51.998;7.614;2023-07-29T03:56:16;18.90;72.10
23671;DHT22;12012;51.998;7.614;2023-07-29T03:58:42;18.80;74.60
23671;DHT22;12012;51.998;7.614;2023-07-29T04:01:09;18.80;66.40
23671;DHT22;12012;51.998;7.614;2023-07-29T04:03:34;18.80;81.40
23671;DHT22;12012;51.998;7.614;2023-07-29T04:06:00;18.90;72.00
23671;DHT22;12012;51.998;7.614;2023-07-29T04:08:26;18.90;94.60
23671;DHT22;12012;51.998;7.614;2023-07-29T04:10:51;18.90;90.70
23671;DHT22;12012;51.998;7.614;2023-07-29T04:13:17;18.90;82.80
23671;DHT22;12012;51.998;7.614;2023-07-29T04:15:43;18.90;69.60
23671;DHT22;12012;51.998;7.614;2023-07-29T04:18:08;18.90;74.20
23671;DHT22;12012;51.998;7.614;2023-07-29T04:20:34;19.00;83.20
23671;DHT22;12012;51.998;7.614;2023-07-29T04:22:59;19.00;70.30
23671;DHT22;12012;51.998;7.614;2023-07-29T04:25:25;19.00;77.00
23671;DHT22;12012;51.998;7.614;2023-07-29T04:27:50;19.00;90.20
23671;DHT22;12012;51.998;7.614;2023-07-29T04:30:16;19.00;74.60
23671;DHT22;12012;51.998;7.614;2023-07-29T04:32:42;19.00;65.50
23671;DHT22;12012;51.998;7.614;2023-07-29T04:35:08;19.00;69.10
23671;DHT22;12012;51.998;7.614;2023-07-29T04:37:34;19.10;66.70
23671;DHT22;12012;51.998;7.614;2023-07-29T04:39:59;19.10;68.90
23671;DHT22;12012;51.998;7.614;2023-07-29T04:42:25;19.10;92.10
23671;DHT22;12012;51.998;7.614;2023-07-29T04:44:50;19.10;89.30
23671;DHT22;12012;51.998;7.614;2023-07-29T04:47:16;19.10;85.50
23671;DHT22;12012;51.998;7.614;2023-07-29T04:49:41;19.10;84.90
23671;DHT22;12012;51.998;7.614;2023-07-29T04:52:07;19.10;59.50
23671;DHT22;12012;51.998;7.614;2023-07-29T04:54:33;19.10;71.40
23671;DHT22;12012;51.998;7.614;2023-07-29T04:56:58;19.10;69.80
23671;DHT22;12012;51.998;7.614;2023-07-29T04:59:24;19.20;62.40
23671;DHT22;12012;51.998;7.614;2023-07-29T05:01:49;19.20;58.40
23671;DHT22;12012;51.998;7.614;2023-07-29T05:04:15;19.20;57.50
23671;DHT22;12012;51.998;7.614;2023-07-29T05:06:41;19.20;55.80
23671;DHT22;12012;51.998;7.614;2023-07-29T05:09:16;19.30;64.30
23671;DHT22;12012;51.998;7.614;2023-07-29T05:11:43;19.20;64.80
23671;DHT22;12012;51.998;7.614;2023-07-29T05:14:11;19.30;56.90
23671;DHT22;12012;51.998;7.614;2023-07-29T05:16:36;19.30;46.50
23671;DHT22;12012;51.998;7.614;2023-07-29T05:19:02;19.40;60.50
23671;DHT22;12012;51.998;7.614;2023-07-29T05:21:28;19.40;69.50
23671;DHT22;12012;51.998;7.614;2023-07-29T05:23:53;19.50;63.50
23671;DHT22;12012;51.998;7.614;2023-07-29T05:26:19;19.50;66.30
23671;DHT22;12012;51.998;7.614;2023-07-29T05:28:44;19.50;68.70
23671;DHT22;12012;51.998;7.614;2023-07-29T05:31:10;19.60;63.90
23671;DHT22;12012;51.998;7.614;2023-07-29T05:33:35;19.70;59.90
23671;DHT22;12012;51.998;7.614;2023-07-29T05:36:01;19.70;67.60
23671;DHT22;12012;51.998;7.614;2023-07-29T05:38:27;19.80;74.90
23671;DHT22;12012;51.998;7.614;2023-07-29T05:40:53;19.80;64.50
23671;DHT22;12012;51.998;7.614;2023-07-29T05:43:18;19.80;59.70
23671;DHT22;12012;51.998;7.614;2023-07-29T05:45:44;19.90;51.30
23671;DHT22;12012;51.998;7.614;2023-07-29T05:48:09;19.90;55.00
23671;DHT22;12012;51.998;7.614;2023-07-29T05:50:35;19.90;52.60
23671;DHT22;12012;51.998;7.614;2023-07-29T05:53:00;20.00;44.30
23671;DHT22;12012;51.998;7.614;2023-07-29T05:55:26;20.00;30.00
23671;DHT22;12012;51.998;7.614;2023-07-29T05:57:51;20.00;24.50
23671;DHT22;12012;51.998;7.614;2023-07-29T06:00:17;20.10;15.20
23671;DHT22;12012;51.998;7.614;2023-07-29T06:02:43;20.10;10.20
23671;DHT22;12012;51.998;7.614;2023-07-29T06:05:08;20.20;6.50
23671;DHT22;12012;51.998;7.614;2023-07-29T06:07:34;20.30;1.00
23671;DHT22;12012;51.998;7.614;2023-07-29T06:10:00;20.30;1.00
23671;DHT22;12012;51.998;7.614;2023-07-29T06:12:26;20.40;1.00
23671;DHT22;12012;51.998;7.614;2023-07-29T06:14:52;20.40;1.00
23671;DHT22;12012;51.998;7.614;2023-07-29T06:17:17;20.50;1.00
23671;DHT22;12012;51.998;7.614;2023-07-29T06:19:43;20.50;1.00
23671;DHT22;12012;51.998;7.614;2023-07-29T06:22:09;20.50;1.00
23671;DHT22;12012;51.998;7.614;2023-07-29T06:24:35;20.40;1.00
23671;DHT22;12012;51.998;7.614;2023-07-29T06:27:01;20.30;1.00
23671;DHT22;12012;51.998;7.614;2023-07-29T06:29:26;20.30;1.00
23671;DHT22;12012;51.998;7.614;2023-07-29T06:31:52;20.20;1.00
23671;DHT22;12012;51.998;7.614;2023-07-29T06:34:17;20.20;1.00
23671;DHT22;12012;51.998;7.614;2023-07-29T06:36:44;20.30;1.00
23671;DHT22;12012;51.998;7.614;2023-07-29T06:39:09;20.30;1.00
23671;DHT22;12012;51.998;7.614;2023-07-29T06:41:35;20.40;1.00
23671;DHT22;12012;51.998;7.614;2023-07-29T06:44:01;20.40;1.00
23671;DHT22;12012;51.998;7.614;2023-07-29T06:46:26;20.40;1.00
23671;DHT22;12012;51.998;7.614;2023-07-29T06:48:52;20.40;1.00
23671;DHT22;12012;51.998;7.614;2023-07-29T06:51:17;20.40;99.90
23671;DHT22;12012;51.998;7.614;2023-07-29T06:53:43;20.40;99.90
23671;DHT22;12012;51.998;7.614;2023-07-29T06:56:08;20.50;99.90
23671;DHT22;12012;51.998;7.614;2023-07-29T06:58:34;20.50;99.90
23671;DHT22;12012;51.998;7.614;2023-07-29T07:01:00;20.50;76.00
23671;DHT22;12012;51.998;7.614;2023-07-29T07:03:26;20.50;99.90
23671;DHT22;12012;51.998;7.614;2023-07-29T07:05:51;20.50;99.90
23671;DHT22;12012;51.998;7.614;2023-07-29T07:08:17;20.50;29.80
23671;DHT22;12012;51.998;7.614;2023-07-29T07:10:42;20.50;1.00
23671;DHT22;12012;51.998;7.614;2023-07-29T07:13:08;20.50;1.00
23671;DHT22;12012;51.998;7.614;2023-07-29T07:15:33;20.60;1.00
23671;DHT22;12012;51.998;7.614;2023-07-29T07:17:59;20.60;1.00
23671;DHT22;12012;51.998;7.614;2023-07-29T07:20:24;20.70;1.00
23671;DHT22;12012;51.998;7.614;2023-07-29T07:22:50;20.70;1.00
23671;DHT22;12012;51.998;7.614;2023-07-29T07:25:15;20.70;1.00
23671;DHT22;12012;51.998;7.614;2023-07-29T07:27:41;20.80;1.00
23671;DHT22;12012;51.998;7.614;2023-07-29T07:30:07;20.80;1.00
23671;DHT22;12012;51.998;7.614;2023-07-29T07:32:32;20.90;99.90
23671;DHT22;12012;51.998;7.614;2023-07-29T07:34:58;20.90;1.00
23671;DHT22;12012;51.998;7.614;2023-07-29T07:37:24;21.00;1.00
23671;DHT22;12012;51.998;7.614;2023-07-29T07:39:49;21.20;1.00
23671;DHT22;12012;51.998;7.614;2023-07-29T07:42:15;21.30;1.00
23671;DHT22;12012;51.998;7.614;2023-07-29T07:44:40;21.50;99.90
23671;DHT22;12012;51.998;7.614;2023-07-29T07:47:06;21.60;99.90
23671;DHT22;12012;51.998;7.614;2023-07-29T07:49:32;21.70;99.90
23671;DHT22;12012;51.998;7.614;2023-07-29T07:51:57;21.70;99.90
23671;DHT22;12012;51.998;7.614;2023-07-29T07:54:23;21.70;99.90
23671;DHT22;12012;51.998;7.614;2023-07-29T07:56:48;21.60;99.90
23671;DHT22;12012;51.998;7.614;2023-07-29T07:59:14;21.60;99.90
23671;DHT22;12012;51.998;7.614;2023-07-29T08:01:39;21.70;99.90
23671;DHT22;12012;51.998;7.614;2023-07-29T08:04:05;21.70;99.90
23671;DHT22;12012;51.998;7.614;2023-07-29T08:06:32;21.90;99.90
23671;DHT22;12012;51.998;7.614;2023-07-29T08:08:58;22.00;99.90
23671;DHT22;12012;51.998;7.614;2023-07-29T08:11:23;22.20;99.90
23671;DHT22;12012;51.998;7.614;2023-07-29T08:13:49;22.40;99.90
23671;DHT22;12012;51.998;7.614;2023-07-29T08:16:15;22.50;99.90
23671;DHT22;12012;51.998;7.614;2023-07-29T08:18:40;22.50;99.90
23671;DHT22;12012;51.998;7.614;2023-07-29T08:21:06;22.60;99.90
23671;DHT22;12012;51.998;7.614;2023-07-29T08:23:36;22.70;99.90
23671;DHT22;12012;51.998;7.614;2023-07-29T08:26:03;23.10;99.90
23671;DHT22;12012;51.998;7.614;2023-07-29T08:28:35;23.60;99.90
23671;DHT22;12012;51.998;7.614;2023-07-29T08:31:02;23.90;99.90
23671;DHT22;12012;51.998;7.614;2023-07-29T08:33:28;24.20;99.90
23671;DHT22;12012;51.998;7.614;2023-07-29T08:35:54;24.50;91.40
23671;DHT22;12012;51.998;7.614;2023-07-29T08:38:20;24.60;73.90
23671;DHT22;12012;51.998;7.614;2023-07-29T08:41:04;24.80;79.10
23671;DHT22;12012;51.998;7.614;2023-07-29T08:43:32;24.80;49.00
23671;DHT22;12012;51.998;7.614;2023-07-29T08:45:59;24.60;47.40
23671;DHT22;12012;51.998;7.614;2023-07-29T08:48:40;24.60;41.30
23671;DHT22;12012;51.998;7.614;2023-07-29T08:51:08;24.60;30.70
23671;DHT22;12012;51.998;7.614;2023-07-29T08:53:35;24.70;32.70
23671;DHT22;12012;51.998;7.614;2023-07-29T08:56:01;24.80;19.00
23671;DHT22;12012;51.998;7.614;2023-07-29T08:58:26;25.00;15.50
23671;DHT22;12012;51.998;7.614;2023-07-29T09:00:52;25.30;10.20
23671;DHT22;12012;51.998;7.614;2023-07-29T09:03:19;25.60;4.00
23671;DHT22;12012;51.998;7.614;2023-07-29T09:05:45;25.90;1.00
23671;DHT22;12012;51.998;7.614;2023-07-29T09:08:11;26.20;1.00
23671;DHT22;12012;51.998;7.614;2023-07-29T09:10:37;26.60;1.00
23671;DHT22;12012;51.998;7.614;2023-07-29T09:13:04;26.80;1.00
23671;DHT22;12012;51.998;7.614;2023-07-29T09:15:31;27.20;1.00
23671;DHT22;12012;51.998;7.614;2023-07-29T09:17:58;27.30;1.00
23671;DHT22;12012;51.998;7.614;2023-07-29T09:20:27;27.20;1.00
23671;DHT22;12012;51.998;7.614;2023-07-29T09:22:58;27.20;1.00
23671;DHT22;12012;51.998;7.614;2023-07-29T09:25:28;27.10;1.00
23671;DHT22;12012;51.998;7.614;2023-07-29T09:28:00;26.90;1.00
23671;DHT22;12012;51.998;7.614;2023-07-29T09:30:27;26.60;1.00
23671;DHT22;12012;51.998;7.614;2023-07-29T09:32:57;26.50;1.00
23671;DHT22;12012;51.998;7.614;2023-07-29T09:35:23;26.70;1.00
23671;DHT22;12012;51.998;7.614;2023-07-29T09:37:48;27.10;1.00
23671;DHT22;12012;51.998;7.614;2023-07-29T09:40:15;27.40;1.00
23671;DHT22;12012;51.998;7.614;2023-07-29T09:42:50;27.60;1.00
23671;DHT22;12012;51.998;7.614;2023-07-29T09:45:23;27.60;1.00
23671;DHT22;12012;51.998;7.614;2023-07-29T09:47:50;27.80;1.00
23671;DHT22;12012;51.998;7.614;2023-07-29T09:50:16;28.10;1.00
23671;DHT22;12012;51.998;7.614;2023-07-29T09:52:42;28.00;1.00
23671;DHT22;12012;51.998;7.614;2023-07-29T09:55:12;28.20;1.00
23671;DHT22;12012;51.998;7.614;2023-07-29T09:57:40;28.10;1.00
23671;DHT22;12012;51.998;7.614;2023-07-29T10:00:06;28.00;1.00
23671;DHT22;12012;51.998;7.614;2023-07-29T10:02:38;27.60;1.00
23671;DHT22;12012;51.998;7.614;2023-07-29T10:05:05;27.50;1.00
23671;DHT22;12012;51.998;7.614;2023-07-29T10:07:31;27.70;1.00
23671;DHT22;12012;51.998;7.614;2023-07-29T10:09:58;27.60;1.00
23671;DHT22;12012;51.998;7.614;2023-07-29T10:12:25;27.50;1.00
23671;DHT22;12012;51.998;7.614;2023-07-29T10:14:52;27.30;1.00
23671;DHT22;12012;51.998;7.614;2023-07-29T10:17:19;27.10;1.00
23671;DHT22;12012;51.998;7.614;2023-07-29T10:19:46;26.90;1.00
23671;DHT22;12012;51.998;7.614;2023-07-29T10:22:13;27.00;1.00
23671;DHT22;12012;51.998;7.614;2023-07-29T10:24:43;27.50;1.00
23671;DHT22;12012;51.998;7.614;2023-07-29T10:27:11;28.00;1.00
23671;DHT22;12012;51.998;7.614;2023-07-29T10:29:44;28.10;1.00
23671;DHT22;12012;51.998;7.614;2023-07-29T10:32:11;27.90;1.00
23671;DHT22;12012;51.998;7.614;2023-07-29T10:34:37;27.60;1.00
23671;DHT22;12012;51.998;7.614;2023-07-29T10:37:04;27.30;1.00
23671;DHT22;12012;51.998;7.614;2023-07-29T10:39:39;26.90;1.00
23671;DHT22;12012;51.998;7.614;2023-07-29T10:42:06;26.60;1.00
23671;DHT22;12012;51.998;7.614;2023-07-29T10:47:15;26.40;1.00
23671;DHT22;12012;51.998;7.614;2023-07-29T10:49:42;26.30;1.00
23671;DHT22;12012;51.998;7.614;2023-07-29T10:52:08;26.20;1.00
23671;DHT22;12012;51.998;7.614;2023-07-29T10:54:47;26.20;1.00
23671;DHT22;12012;51.998;7.614;2023-07-29T10:57:30;26.30;1.00
23671;DHT22;12012;51.998;7.614;2023-07-29T10:59:56;26.50;1.00
23671;DHT22;12012;51.998;7.614;2023-07-29T11:02:31;26.80;1.00
23671;DHT22;12012;51.998;7.614;2023-07-29T11:04:57;27.00;1.00
23671;DHT22;12012;51.998;7.614;2023-07-29T11:07:24;27.40;1.00
23671;DHT22;12012;51.998;7.614;2023-07-29T11:15:15;27.60;1.00
23671;DHT22;12012;51.998;7.614;2023-07-29T11:20:24;29.10;1.00
23671;DHT22;12012;51.998;7.614;2023-07-29T11:22:51;29.40;1.00
23671;DHT22;12012;51.998;7.614;2023-07-29T11:25:18;29.20;1.00
23671;DHT22;12012;51.998;7.614;2023-07-29T11:27:44;28.90;1.00
23671;DHT22;12012;51.998;7.614;2023-07-29T11:30:11;28.70;1.00
23671;DHT22;12012;51.998;7.614;2023-07-29T11:32:38;28.80;1.00
23671;DHT22;12012;51.998;7.614;2023-07-29T11:35:08;29.10;1.00
23671;DHT22;12012;51.998;7.614;2023-07-29T11:37:36;29.00;1.00
23671;DHT22;12012;51.998;7.614;2023-07-29T11:40:02;28.80;1.00
23671;DHT22;12012;51.998;7.614;2023-07-29T11:42:31;28.50;1.00
23671;DHT22;12012;51.998;7.614;2023-07-29T11:44:57;28.20;1.00
23671;DHT22;12012;51.998;7.614;2023-07-29T11:47:23;27.90;1.00
23671;DHT22;12012;51.998;7.614;2023-07-29T11:49:49;27.60;1.00
23671;DHT22;12012;51.998;7.614;2023-07-29T11:52:15;27.50;1.00
23671;DHT22;12012;51.998;7.614;2023-07-29T11:54:44;27.40;1.00
23671;DHT22;12012;51.998;7.614;2023-07-29T11:57:10;27.20;1.00
23671;DHT22;12012;51.998;7.614;2023-07-29T11:59:36;27.10;1.00
23671;DHT22;12012;51.998;7.614;2023-07-29T12:02:15;26.80;1.00
23671;DHT22;12012;51.998;7.614;2023-07-29T12:04:41;26.50;1.00
23671;DHT22;12012;51.998;7.614;2023-07-29T12:07:08;26.10;1.00
23671;DHT22;12012;51.998;7.614;2023-07-29T12:09:37;25.90;1.00
23671;DHT22;12012;51.998;7.614;2023-07-29T12:12:04;25.80;1.00
23671;DHT22;12012;51.998;7.614;2023-07-29T12:14:30;25.80;1.00
23671;DHT22;12012;51.998;7.614;2023-07-29T12:16:56;25.80;1.00
23671;DHT22;12012;51.998;7.614;2023-07-29T12:19:21;26.20;1.00
23671;DHT22;12012;51.998;7.614;2023-07-29T12:21:50;26.50;1.00
23671;DHT22;12012;51.998;7.614;2023-07-29T12:24:16;27.20;1.00
23671;DHT22;12012;51.998;7.614;2023-07-29T12:26:42;27.50;1.00
23671;DHT22;12012;51.998;7.614;2023-07-29T12:29:26;27.70;1.00
23671;DHT22;12012;51.998;7.614;2023-07-29T12:32:03;28.70;1.00
23671;DHT22;12012;51.998;7.614;2023-07-29T12:34:30;29.60;1.00
23671;DHT22;12012;51.998;7.614;2023-07-29T12:36:57;29.90;1.00
23671;DHT22;12012;51.998;7.614;2023-07-29T12:39:29;30.40;1.00
23671;DHT22;12012;51.998;7.614;2023-07-29T12:41:56;31.40;1.00
23671;DHT22;12012;51.998;7.614;2023-07-29T12:44:29;31.30;1.00
23671;DHT22;12012;51.998;7.614;2023-07-29T12:46:54;30.80;1.00
23671;DHT22;12012;51.998;7.614;2023-07-29T12:49:20;30.90;1.00
23671;DHT22;12012;51.998;7.614;2023-07-29T12:51:46;31.10;1.00
23671;DHT22;12012;51.998;7.614;2023-07-29T12:54:11;31.00;1.00
23671;DHT22;12012;51.998;7.614;2023-07-29T12:56:37;31.40;1.00
23671;DHT22;12012;51.998;7.614;2023-07-29T12:59:03;31.80;1.00
23671;DHT22;12012;51.998;7.614;2023-07-29T13:01:29;32.40;1.00
23671;DHT22;12012;51.998;7.614;2023-07-29T13:03:55;33.20;1.00
23671;DHT22;12012;51.998;7.614;2023-07-29T13:06:22;33.70;1.00
23671;DHT22;12012;51.998;7.614;2023-07-29T13:08:48;34.00;1.00
23671;DHT22;12012;51.998;7.614;2023-07-29T13:11:15;33.70;1.00
23671;DHT22;12012;51.998;7.614;2023-07-29T13:13:40;33.40;1.00
23671;DHT22;12012;51.998;7.614;2023-07-29T13:16:06;33.10;1.00
23671;DHT22;12012;51.998;7.614;2023-07-29T13:18:32;33.40;1.00
23671;DHT22;12012;51.998;7.614;2023-07-29T13:20:58;33.50;1.00
23671;DHT22;12012;51.998;7.614;2023-07-29T13:23:24;33.30;1.00
23671;DHT22;12012;51.998;7.614;2023-07-29T13:25:49;33.20;1.00
23671;DHT22;12012;51.998;7.614;2023-07-29T13:28:15;32.60;1.00
23671;DHT22;12012;51.998;7.614;2023-07-29T13:30:41;31.80;1.00
23671;DHT22;12012;51.998;7.614;2023-07-29T13:33:07;31.20;1.00
23671;DHT22;12012;51.998;7.614;2023-07-29T13:35:33;31.00;1.00
23671;DHT22;12012;51.998;7.614;2023-07-29T13:38:00;31.00;1.00
23671;DHT22;12012;51.998;7.614;2023-07-29T13:40:26;30.60;1.00
23671;DHT22;12012;51.998;7.614;2023-07-29T13:42:51;30.10;1.00
23671;DHT22;12012;51.998;7.614;2023-07-29T13:45:18;29.70;1.00
23671;DHT22;12012;51.998;7.614;2023-07-29T13:47:43;29.10;1.00
23671;DHT22;12012;51.998;7.614;2023-07-29T13:50:09;28.50;1.00
23671;DHT22;12012;51.998;7.614;2023-07-29T13:52:36;27.90;1.00
23671;DHT22;12012;51.998;7.614;2023-07-29T13:55:03;27.40;1.00
23671;DHT22;12012;51.998;7.614;2023-07-29T13:57:28;26.90;1.00
23671;DHT22;12012;51.998;7.614;2023-07-29T13:59:54;26.60;1.00
23671;DHT22;12012;51.998;7.614;2023-07-29T14:02:20;26.10;1.00
23671;DHT22;12012;51.998;7.614;2023-07-29T14:04:45;25.60;1.00
23671;DHT22;12012;51.998;7.614;2023-07-29T14:07:11;24.80;1.00
23671;DHT22;12012;51.998;7.614;2023-07-29T14:09:36;23.90;1.00
23671;DHT22;12012;51.998;7.614;2023-07-29T14:12:04;22.70;1.00
23671;DHT22;12012;51.998;7.614;2023-07-29T14:14:30;21.70;1.00
23671;DHT22;12012;51.998;7.614;2023-07-29T14:16:55;20.80;1.00
23671;DHT22;12012;51.998;7.614;2023-07-29T14:19:21;20.10;99.90
23671;DHT22;12012;51.998;7.614;2023-07-29T14:21:46;19.70;99.90
23671;DHT22;12012;51.998;7.614;2023-07-29T14:24:12;19.40;99.90
23671;DHT22;12012;51.998;7.614;2023-07-29T14:26:37;19.20;99.90
23671;DHT22;12012;51.998;7.614;2023-07-29T14:29:03;19.10;24.90
23671;DHT22;12012;51.998;7.614;2023-07-29T14:31:28;18.90;1.00
23671;DHT22;12012;51.998;7.614;2023-07-29T14:33:54;18.90;99.90
23671;DHT22;12012;51.998;7.614;2023-07-29T14:36:22;18.90;99.90
23671;DHT22;12012;51.998;7.614;2023-07-29T14:38:48;18.80;99.90
23671;DHT22;12012;51.998;7.614;2023-07-29T14:41:15;18.90;99.90
23671;DHT22;12012;51.998;7.614;2023-07-29T14:43:40;18.80;99.90
23671;DHT22;12012;51.998;7.614;2023-07-29T14:46:06;18.90;99.90
23671;DHT22;12012;51.998;7.614;2023-07-29T14:48:31;18.90;1.00
23671;DHT22;12012;51.998;7.614;2023-07-29T14:50:57;18.90;1.00
23671;DHT22;12012;51.998;7.614;2023-07-29T14:53:22;18.90;1.00
23671;DHT22;12012;51.998;7.614;2023-07-29T14:55:48;18.90;1.00
23671;DHT22;12012;51.998;7.614;2023-07-29T14:58:14;18.80;1.00
23671;DHT22;12012;51.998;7.614;2023-07-29T15:00:40;18.80;1.00
23671;DHT22;12012;51.998;7.614;2023-07-29T15:03:05;18.90;1.00
23671;DHT22;12012;51.998;7.614;2023-07-29T15:05:32;19.00;1.00
23671;DHT22;12012;51.998;7.614;2023-07-29T15:07:58;19.10;99.90
23671;DHT22;12012;51.998;7.614;2023-07-29T15:10:23;19.10;99.90
23671;DHT22;12012;51.998;7.614;2023-07-29T15:12:49;19.20;13.00
23671;DHT22;12012;51.998;7.614;2023-07-29T15:15:15;19.40;1.00
23671;DHT22;12012;51.998;7.614;2023-07-29T15:17:40;20.20;99.90
23671;DHT22;12012;51.998;7.614;2023-07-29T15:20:06;21.20;99.90
23671;DHT22;12012;51.998;7.614;2023-07-29T15:22:32;22.10;99.90
23671;DHT22;12012;51.998;7.614;2023-07-29T15:25:00;23.00;99.90
23671;DHT22;12012;51.998;7.614;2023-07-29T15:27:27;23.70;1.00
23671;DHT22;12012;51.998;7.614;2023-07-29T15:30:14;24.20;99.90
23671;DHT22;12012;51.998;7.614;2023-07-29T15:32:39;24.80;99.90
23671;DHT22;12012;51.998;7.614;2023-07-29T15:35:06;25.30;1.00
23671;DHT22;12012;51.998;7.614;2023-07-29T15:37:31;25.60;1.00
23671;DHT22;12012;51.998;7.614;2023-07-29T15:40:00;25.90;99.90
23671;DHT22;12012;51.998;7.614;2023-07-29T15:42:26;26.20;99.90
23671;DHT22;12012;51.998;7.614;2023-07-29T15:44:51;26.40;99.90
23671;DHT22;12012;51.998;7.614;2023-07-29T15:47:17;26.50;99.90
23671;DHT22;12012;51.998;7.614;2023-07-29T15:49:44;26.50;99.90